Time;durP1;ratioP1;P1;durP2;ratioP2;P2;SDS_P1;SDS_P2;PMS_P1;PMS_P2;Temp;Humidity;BMP_temperature;BMP_pressure;BME280_temperature;BME280_humidity;BME280_pressure;Samples;Min_cycle;Max_cycle;Signal;HPM_P1;HPM_P2
2022/12/25 00:00:31;;;;;;;4.72;2.05;;;;;;;7.75;70.64;94239.44;6165710;23;20001;-79
2022/12/25 00:02:56;;;;;;;3.38;2.10;;;;;;;7.73;70.56;94268.91;6139619;23;20013;-80
2022/12/25 00:05:22;;;;;;;3.42;1.88;;;;;;;7.74;70.27;94264.41;6165766;23;20064;-80
2022/12/25 00:07:47;;;;;;;3.47;2.10;;;;;;;7.70;70.54;94258.88;6139711;23;20382;-80
2022/12/25 00:10:13;;;;;;;4.22;2.60;;;;;;;7.77;70.26;94267.28;6165587;23;20002;-79
2022/12/25 00:12:39;;;;;;;5.30;2.45;;;;;;;7.68;70.29;94261.03;6165490;23;20299;-79
2022/12/25 00:15:05;;;;;;;4.93;2.50;;;;;;;7.74;70.48;94273.16;6165769;23;20295;-80
2022/12/25 00:17:30;;;;;;;4.25;2.10;;;;;;;7.67;71.33;94280.66;6139406;23;20001;-80
2022/12/25 00:19:56;;;;;;;4.32;2.50;;;;;;;7.70;71.25;94280.13;6165638;23;20032;-79
2022/12/25 00:22:21;;;;;;;8.45;3.00;;;;;;;7.67;71.64;94282.53;6165187;23;20013;-80
2022/12/25 00:24:47;;;;;;;6.00;2.67;;;;;;;7.64;72.12;94295.28;6165654;23;20057;-80
2022/12/25 00:27:13;;;;;;;5.22;2.90;;;;;;;7.64;72.56;94275.94;6165566;23;20052;-80
2022/12/25 00:29:39;;;;;;;4.40;2.33;;;;;;;7.58;72.54;94287.69;6165355;23;20295;-80
2022/12/25 00:32:04;;;;;;;4.07;2.22;;;;;;;7.60;72.40;94283.66;6139353;23;20008;-80
2022/12/25 00:34:30;;;;;;;4.97;2.40;;;;;;;7.63;72.33;94285.78;6165484;23;20069;-80
2022/12/25 00:36:55;;;;;;;4.43;1.95;;;;;;;7.59;72.28;94291.91;6165364;23;20000;-80
2022/12/25 00:39:21;;;;;;;4.53;2.35;;;;;;;7.61;71.96;94298.53;6165070;23;20296;-80
2022/12/25 00:44:30;;;;;;;2.45;1.30;;;;;;;7.67;70.61;94288.63;6165296;23;20020;-80
2022/12/25 00:46:56;;;;;;;6.03;2.35;;;;;;;7.71;70.26;94302.91;6165245;23;20048;-80
2022/12/25 00:49:22;;;;;;;4.25;1.30;;;;;;;7.68;70.22;94282.25;6165350;23;20001;-80
2022/12/25 00:51:51;;;;;;;3.90;1.75;;;;;;;7.67;70.16;94288.63;6165455;23;20052;-80
2022/12/25 00:54:17;;;;;;;5.53;1.88;;;;;;;7.68;70.32;94289.44;6165612;23;20001;-80
2022/12/25 00:56:43;;;;;;;3.50;1.58;;;;;;;7.70;69.75;94284.63;6165115;23;20173;-80
2022/12/25 00:59:09;;;;;;;3.83;1.50;;;;;;;7.73;69.94;94292.78;6165214;23;20033;-80
2022/12/25 01:01:35;;;;;;;4.00;1.50;;;;;;;7.69;69.48;94301.63;6165037;23;20173;-80
2022/12/25 01:04:00;;;;;;;4.20;1.40;;;;;;;7.70;69.86;94293.38;6138821;23;20094;-80
2022/12/25 01:06:26;;;;;;;2.70;1.42;;;;;;;7.67;70.01;94285.97;6165352;23;20233;-80
2022/12/25 01:11:36;;;;;;;3.92;1.90;;;;;;;7.60;69.90;94280.25;6165185;23;20035;-80
2022/12/25 01:14:01;;;;;;;6.70;1.95;;;;;;;7.58;70.45;94291.13;6165026;23;20196;-80
2022/12/25 01:16:27;;;;;;;3.28;1.63;;;;;;;7.49;70.87;94297.31;6138931;23;20357;-80
2022/12/25 01:18:53;;;;;;;3.85;2.10;;;;;;;7.47;71.18;94297.63;6138919;23;20036;-80
2022/12/25 01:21:20;;;;;;;4.28;1.88;;;;;;;7.42;71.47;94293.16;6165293;23;19996;-80
2022/12/25 01:23:46;;;;;;;3.47;1.70;;;;;;;7.37;71.33;94287.13;6165113;23;20022;-80
2022/12/25 01:26:14;;;;;;;2.97;1.67;;;;;;;7.33;71.49;94289.56;6165060;23;19997;-80
2022/12/25 01:28:40;;;;;;;7.97;2.00;;;;;;;7.25;71.71;94284.88;6164677;23;20001;-80
2022/12/25 01:31:13;;;;;;;4.20;1.80;;;;;;;7.22;71.97;94282.75;6164778;23;20005;-81
2022/12/25 01:33:40;;;;;;;3.55;1.77;;;;;;;7.18;71.82;94276.44;6164947;23;19997;-80
2022/12/25 01:36:18;;;;;;;3.97;2.30;;;;;;;7.13;71.99;94290.53;6164891;23;20196;-80
2022/12/25 01:38:45;;;;;;;5.78;1.88;;;;;;;7.13;71.81;94287.13;6164656;23;20002;-80
2022/12/25 01:41:12;;;;;;;6.40;2.50;;;;;;;7.06;72.16;94286.63;6165001;23;20001;-80
2022/12/25 01:43:55;;;;;;;3.55;2.13;;;;;;;7.05;71.94;94274.47;6164827;23;20227;-80
2022/12/25 01:46:21;;;;;;;4.93;1.83;;;;;;;6.99;72.08;94279.03;6164925;23;20012;-80
2022/12/25 01:48:47;;;;;;;3.53;2.00;;;;;;;6.98;72.32;94274.78;6165045;23;20235;-80
2022/12/25 01:51:27;;;;;;;3.25;1.80;;;;;;;6.99;72.02;94292.28;6164757;23;20060;-80
2022/12/25 01:53:55;;;;;;;3.92;2.00;;;;;;;6.96;72.16;94296.28;6164677;23;20005;-80
2022/12/25 01:56:21;;;;;;;5.20;2.05;;;;;;;6.89;71.84;94265.88;6164928;23;20052;-81
2022/12/25 01:58:46;;;;;;;5.10;2.00;;;;;;;6.90;71.49;94289.44;6164774;23;20292;-80
2022/12/25 02:01:12;;;;;;;4.20;1.85;;;;;;;6.90;71.22;94289.44;6164579;23;20008;-80
2022/12/25 02:03:41;;;;;;;3.17;1.85;;;;;;;6.90;70.91;94294.75;6164647;23;19998;-80
2022/12/25 02:06:07;;;;;;;3.00;1.98;;;;;;;6.85;71.33;94292.13;6164502;23;20017;-80
2022/12/25 02:08:33;;;;;;;4.38;1.80;;;;;;;6.85;71.69;94304.59;6162883;23;20017;-81
2022/12/25 02:10:58;;;;;;;4.07;2.08;;;;;;;6.85;71.41;94297.44;6162756;23;20009;-81
2022/12/25 02:13:24;;;;;;;8.02;2.40;;;;;;;6.83;71.26;94297.69;6164183;23;20044;-80
2022/12/25 02:16:06;;;;;;;5.13;1.75;;;;;;;6.80;71.13;94295.63;6138183;23;20226;-80
2022/12/25 02:18:41;;;;;;;4.72;2.30;;;;;;;6.80;70.87;94294.84;6164617;23;20004;-80
2022/12/25 02:21:45;;;;;;;5.47;1.83;;;;;;;6.81;70.37;94296.41;6164653;23;20199;-80
2022/12/25 02:24:29;;;;;;;3.40;1.83;;;;;;;6.83;69.08;94299.56;6017532;23;20214;-80
2022/12/25 02:27:21;;;;;;;3.45;2.13;;;;;;;6.78;68.85;94294.31;6017506;23;20004;-81
2022/12/25 02:29:54;;;;;;;3.65;1.77;;;;;;;6.75;69.31;94298.28;6106305;23;20001;-80
2022/12/25 02:32:29;;;;;;;5.28;2.13;;;;;;;6.79;69.13;94293.25;6164609;23;20052;-81
2022/12/25 02:35:33;;;;;;;4.65;2.10;;;;;;;6.82;68.92;94292.69;6163950;23;20049;-80
2022/12/25 02:38:33;;;;;;;4.55;2.22;;;;;;;6.82;68.32;94304.09;6157564;23;20326;-80
2022/12/25 02:41:06;;;;;;;4.78;1.70;;;;;;;6.84;67.95;94287.91;6138284;23;20001;-81
2022/12/25 03:07:02;;;;;;;3.42;1.65;;;;;;;6.97;63.80;94297.84;6166510;23;20354;-80
2022/12/25 03:12:27;;;;;;;3.78;1.33;;;;;;;6.95;63.52;94302.63;6166543;23;20015;-80
2022/12/25 03:17:37;;;;;;;5.40;2.25;;;;;;;7.01;63.03;94317.41;6166236;23;20025;-81
2022/12/25 03:28:18;;;;;;;3.08;1.33;;;;;;;6.94;63.48;94327.56;6166401;23;20065;-80
2022/12/25 03:31:10;;;;;;;4.50;1.63;;;;;;;6.98;63.27;94328.59;6165971;23;19998;-81
2022/12/25 03:36:38;;;;;;;3.20;1.88;;;;;;;6.88;64.19;94331.34;6165894;23;20012;-81
2022/12/25 04:37:18;;;;;;;2.25;1.20;;;;;;;6.84;63.09;94383.31;6165892;23;20100;-81
2022/12/25 04:39:43;;;;;;;4.55;1.75;;;;;;;6.88;63.42;94384.31;6165462;23;20001;-81
2022/12/25 04:42:09;;;;;;;3.47;1.55;;;;;;;6.89;63.65;94388.53;6139358;23;20208;-80
2022/12/25 04:44:34;;;;;;;3.28;1.50;;;;;;;6.85;63.27;94382.22;6165391;23;19993;-82
2022/12/25 04:47:00;;;;;;;2.92;1.55;;;;;;;6.88;63.87;94392.28;6165119;23;20291;-82
2022/12/25 04:49:26;;;;;;;4.13;1.67;;;;;;;6.76;64.53;94411.16;6165318;23;20032;-81
2022/12/25 04:51:51;;;;;;;4.60;1.63;;;;;;;6.73;65.44;94392.38;6165378;23;20001;-81
2022/12/25 04:54:17;;;;;;;2.63;1.25;;;;;;;6.70;65.62;94396.38;6165490;23;20000;-81
2022/12/25 04:56:42;;;;;;;4.05;1.60;;;;;;;6.63;65.68;94396.69;6165278;23;20040;-81
2022/12/25 04:59:08;;;;;;;3.55;1.30;;;;;;;6.63;65.52;94395.88;6165231;23;19997;-81
2022/12/25 05:01:33;;;;;;;6.60;1.60;;;;;;;6.59;65.65;94395.66;6139087;23;20339;-80
2022/12/25 05:03:59;;;;;;;5.07;1.38;;;;;;;6.55;65.87;94393.81;6165113;23;20040;-80
2022/12/25 05:06:24;;;;;;;5.30;1.48;;;;;;;6.56;65.88;94400.69;6165018;23;20020;-80
2022/12/25 05:08:49;;;;;;;3.50;1.83;;;;;;;6.59;65.80;94395.66;6165275;23;20191;-80
2022/12/25 05:11:15;;;;;;;3.35;1.25;;;;;;;6.57;65.58;94397.78;6164867;23;20307;-81
2022/12/25 05:13:41;;;;;;;3.85;1.73;;;;;;;6.59;65.23;94398.31;6139214;23;20415;-81
2022/12/25 05:16:08;;;;;;;4.78;1.83;;;;;;;6.58;65.41;94402.00;6165083;23;20200;-80
2022/12/25 05:18:34;;;;;;;3.22;1.27;;;;;;;6.61;64.99;94412.06;6165089;23;20020;-81
2022/12/25 05:21:00;;;;;;;2.53;1.20;;;;;;;6.65;64.61;94391.09;6165092;23;20066;-82
2022/12/25 05:23:25;;;;;;;8.63;1.75;;;;;;;6.66;64.83;94398.00;6164874;23;20002;-81
2022/12/25 05:25:51;;;;;;;4.55;1.45;;;;;;;6.71;64.92;94391.84;6165033;23;20200;-81
2022/12/25 05:28:16;;;;;;;6.85;1.20;;;;;;;6.71;64.10;94399.81;6165204;23;20021;-81
2022/12/25 05:30:42;;;;;;;3.83;1.30;;;;;;;6.72;64.20;94410.13;6164974;23;20005;-81
2022/12/25 05:33:08;;;;;;;5.05;0.88;;;;;;;6.73;63.98;94408.25;6165012;23;20016;-81
2022/12/25 05:35:36;;;;;;;4.03;1.33;;;;;;;6.72;63.73;94404.84;6165019;23;19997;-82
2022/12/25 05:38:01;;;;;;;3.42;1.73;;;;;;;6.75;63.48;94403.47;6164918;23;19997;-80
2022/12/25 05:40:27;;;;;;;6.43;1.40;;;;;;;6.76;63.25;94416.47;6164803;23;20012;-80
2022/12/25 05:42:52;;;;;;;3.72;1.27;;;;;;;6.75;63.20;94419.38;6164545;23;20040;-80
2022/12/25 05:45:18;;;;;;;2.63;1.00;;;;;;;6.81;62.74;94420.94;6164578;23;20087;-80
2022/12/25 05:47:43;;;;;;;2.15;1.13;;;;;;;6.82;63.62;94420.66;6164897;23;19994;-80
2022/12/25 05:50:09;;;;;;;3.45;1.00;;;;;;;6.81;63.57;94411.13;6164673;23;20057;-82
2022/12/25 05:52:34;;;;;;;3.17;1.08;;;;;;;6.84;63.70;94423.03;6164933;23;20000;-81
2022/12/25 05:55:00;;;;;;;2.22;1.15;;;;;;;6.85;63.86;94435.22;6164659;23;20044;-81
2022/12/25 05:57:29;;;;;;;5.63;1.20;;;;;;;6.87;63.33;94417.19;6164748;23;19993;-81
2022/12/25 05:59:55;;;;;;;3.53;1.05;;;;;;;6.85;63.22;94440.50;6164488;23;20012;-80
2022/12/25 06:02:20;;;;;;;7.57;1.38;;;;;;;6.86;63.58;94436.81;6164928;23;20017;-80
2022/12/25 06:04:46;;;;;;;2.92;0.70;;;;;;;6.86;63.59;94420.91;6138804;23;20048;-80
2022/12/25 06:07:11;;;;;;;4.63;0.95;;;;;;;6.89;63.49;94430.94;6164607;23;20060;-79
2022/12/25 06:09:37;;;;;;;3.78;0.80;;;;;;;6.90;63.40;94445.78;6164499;23;20005;-80
2022/12/25 06:12:03;;;;;;;2.00;0.77;;;;;;;6.93;63.19;94431.19;6164512;23;20020;-80
2022/12/25 06:14:28;;;;;;;1.95;0.82;;;;;;;6.94;63.50;94444.19;6164359;23;20191;-80
2022/12/25 06:16:54;;;;;;;1.55;0.75;;;;;;;6.93;63.50;94447.09;6164605;23;20237;-80
2022/12/25 06:19:20;;;;;;;2.15;0.82;;;;;;;6.94;63.43;94427.47;6164346;23;19985;-80
2022/12/25 06:21:46;;;;;;;2.38;0.90;;;;;;;6.94;63.94;94453.97;6164545;23;20004;-80
2022/12/25 06:24:11;;;;;;;5.53;0.93;;;;;;;6.99;63.45;94456.59;6138196;23;20092;-80
2022/12/25 06:26:37;;;;;;;1.65;0.70;;;;;;;6.99;63.53;94460.03;6164525;23;20006;-80
2022/12/25 06:29:03;;;;;;;6.57;0.90;;;;;;;7.04;63.57;94469.78;6138209;23;20387;-80
2022/12/25 06:31:28;;;;;;;3.70;0.93;;;;;;;7.06;63.40;94456.28;6164571;23;20072;-80
2022/12/25 06:33:54;;;;;;;3.88;1.00;;;;;;;7.05;63.68;94460.78;6164407;23;19997;-80
2022/12/25 06:36:23;;;;;;;3.88;1.50;;;;;;;7.05;63.51;94450.19;6164450;23;20005;-80
2022/12/25 06:38:48;;;;;;;4.80;0.90;;;;;;;7.13;63.38;94478.75;6164523;23;20293;-80
2022/12/25 06:41:22;;;;;;;2.00;0.88;;;;;;;7.14;63.35;94475.03;6164431;23;20093;-80
2022/12/25 06:43:51;;;;;;;2.88;1.10;;;;;;;7.19;63.17;94466.28;6164244;23;20276;-80
2022/12/25 06:46:17;;;;;;;2.70;0.98;;;;;;;7.22;63.01;94492.22;6138623;23;20073;-80
2022/12/25 06:48:47;;;;;;;2.40;0.98;;;;;;;7.18;63.33;94475.28;6164335;23;19997;-80
2022/12/25 06:51:14;;;;;;;2.35;1.25;;;;;;;7.22;63.04;94492.22;6164289;23;20001;-80
2022/12/25 06:53:39;;;;;;;4.40;1.48;;;;;;;7.22;63.34;94492.22;6164271;23;19994;-80
2022/12/25 06:56:07;;;;;;;7.43;1.55;;;;;;;7.26;62.94;94487.16;6164488;23;20004;-80
2022/12/25 06:58:32;;;;;;;2.70;0.95;;;;;;;7.24;62.98;94503.34;6164293;23;20005;-79
2022/12/25 07:00:58;;;;;;;3.25;1.33;;;;;;;7.27;62.98;94488.75;6164315;23;20002;-80
2022/12/25 07:03:27;;;;;;;3.17;1.33;;;;;;;7.33;63.18;94503.56;6163585;23;19998;-80
2022/12/25 07:05:52;;;;;;;4.60;1.58;;;;;;;7.31;63.16;94509.13;6162872;23;20025;-80
2022/12/25 07:08:18;;;;;;;5.65;1.23;;;;;;;7.34;63.04;94521.81;6164546;23;20322;-80
2022/12/25 07:10:43;;;;;;;4.50;1.17;;;;;;;7.35;63.27;94522.63;6163920;23;20056;-80
2022/12/25 07:13:09;;;;;;;3.88;1.02;;;;;;;7.38;63.57;94543.28;6164301;23;19993;-80
2022/12/25 07:15:34;;;;;;;4.85;1.33;;;;;;;7.32;63.40;94529.25;6164340;23;20001;-80
2022/12/25 07:18:00;;;;;;;6.30;1.65;;;;;;;7.36;63.44;94535.59;6164328;23;19994;-80
2022/12/25 07:20:26;;;;;;;5.13;1.17;;;;;;;7.38;63.37;94536.13;6164268;23;20008;-80
2022/12/25 07:22:51;;;;;;;4.20;1.27;;;;;;;7.37;63.77;94547.03;6164078;23;20032;-79
2022/12/25 07:25:17;;;;;;;4.40;1.02;;;;;;;7.36;63.76;94535.59;6164417;23;20001;-80
2022/12/25 07:27:42;;;;;;;2.58;1.13;;;;;;;7.34;63.62;94551.00;6163527;23;20172;-79
2022/12/25 07:30:08;;;;;;;2.15;0.85;;;;;;;7.37;63.84;94550.47;6164296;23;20001;-80
2022/12/25 07:32:34;;;;;;;2.47;1.10;;;;;;;7.33;63.80;94544.13;6166010;23;20231;-80
2022/12/25 07:34:59;;;;;;;6.78;1.52;;;;;;;7.40;63.54;94541.16;6165833;23;20187;-80
2022/12/25 07:37:24;;;;;;;4.20;1.08;;;;;;;7.48;63.69;94545.09;6139710;23;20005;-80
2022/12/25 07:39:50;;;;;;;3.60;1.40;;;;;;;7.49;63.56;94551.97;6166348;23;20088;-80
2022/12/25 07:42:15;;;;;;;5.25;1.33;;;;;;;7.51;63.63;94555.13;6165814;23;20009;-80
2022/12/25 07:44:40;;;;;;;5.90;1.23;;;;;;;7.51;63.49;94563.09;6165707;23;20012;-80
2022/12/25 07:47:06;;;;;;;3.45;1.20;;;;;;;7.50;63.66;94575.56;6165972;23;20002;-80
2022/12/25 07:49:32;;;;;;;3.58;1.05;;;;;;;7.55;63.79;94569.44;6165873;23;20000;-80
2022/12/25 07:51:57;;;;;;;4.47;1.70;;;;;;;7.56;63.67;94569.16;6165620;23;20043;-80
2022/12/25 07:54:22;;;;;;;3.08;1.35;;;;;;;7.62;63.71;94583.97;6165869;23;19995;-80
2022/12/25 07:56:52;;;;;;;4.10;1.20;;;;;;;7.61;63.36;94579.75;6165946;23;20343;-80
2022/12/25 07:59:18;;;;;;;4.80;1.02;;;;;;;7.62;63.49;94569.91;6166031;23;19997;-80
2022/12/25 08:01:43;;;;;;;3.53;1.17;;;;;;;7.68;62.68;94576.78;6165762;23;20040;-80
2022/12/25 08:04:10;;;;;;;3.63;1.27;;;;;;;7.72;62.85;94585.75;6165394;23;20184;-80
2022/12/25 08:06:36;;;;;;;3.85;1.02;;;;;;;7.79;62.89;94596.06;6165550;23;20019;-80
2022/12/25 08:09:10;;;;;;;6.88;1.42;;;;;;;7.75;63.03;94590.50;6165785;23;19997;-79
2022/12/25 08:11:36;;;;;;;2.78;1.33;;;;;;;7.83;62.51;94597.88;6139655;23;20005;-80
2022/12/25 08:14:07;;;;;;;3.45;1.10;;;;;;;7.86;62.13;94595.72;6165469;23;19997;-80
2022/12/25 08:16:33;;;;;;;1.97;1.00;;;;;;;7.86;62.09;94590.41;6165746;23;20011;-79
2022/12/25 08:18:58;;;;;;;4.18;1.17;;;;;;;7.97;61.77;94594.59;6139503;23;19997;-80
2022/12/25 08:21:24;;;;;;;7.18;1.80;;;;;;;8.00;61.77;94584.22;6165518;23;20009;-80
2022/12/25 08:23:49;;;;;;;3.35;1.50;;;;;;;8.07;61.42;94591.84;6139572;23;20000;-79
2022/12/25 08:26:18;;;;;;;3.95;1.20;;;;;;;8.14;61.14;94592.34;6165376;23;20009;-80
2022/12/25 08:28:44;;;;;;;2.78;1.25;;;;;;;8.13;60.91;94582.78;6165363;23;20068;-79
2022/12/25 08:31:14;;;;;;;4.85;1.13;;;;;;;8.11;60.90;94576.94;6165433;23;20001;-80
2022/12/25 08:33:41;;;;;;;1.88;0.90;;;;;;;8.19;60.98;94573.69;6139279;23;20036;-80
2022/12/25 08:36:08;;;;;;;3.08;1.20;;;;;;;8.24;60.95;94575.50;6139282;23;20012;-79
2022/12/25 08:38:34;;;;;;;7.18;1.33;;;;;;;8.31;60.47;94581.28;6165319;23;20009;-80
2022/12/25 08:40:59;;;;;;;3.97;0.90;;;;;;;8.38;59.93;94575.63;6139282;23;20284;-80
2022/12/25 08:43:25;;;;;;;3.85;1.10;;;;;;;8.39;59.64;94582.53;6164830;23;20196;-80
2022/12/25 08:45:50;;;;;;;2.85;0.95;;;;;;;8.43;59.43;94589.69;6165394;23;20280;-80
2022/12/25 08:48:16;;;;;;;3.78;0.75;;;;;;;8.45;58.78;94581.44;6165214;23;20008;-80
2022/12/25 08:50:49;;;;;;;2.75;1.13;;;;;;;8.53;58.73;94603.94;6165462;23;20032;-80
2022/12/25 08:53:15;;;;;;;4.32;1.05;;;;;;;8.52;58.49;94600.50;6165495;23;20002;-79
2022/12/25 08:55:40;;;;;;;2.15;0.90;;;;;;;8.58;58.06;94596.69;6165453;23;20268;-79
2022/12/25 08:58:06;;;;;;;3.45;1.05;;;;;;;8.67;57.93;94596.09;6164958;23;19997;-79
2022/12/25 09:00:32;;;;;;;4.72;1.13;;;;;;;8.77;57.33;94595.97;6139195;23;20001;-79
2022/12/25 09:02:57;;;;;;;1.88;0.90;;;;;;;8.79;57.51;94588.50;6164864;23;19997;-79
2022/12/25 09:05:23;;;;;;;2.65;0.93;;;;;;;8.86;57.45;94602.25;6165215;23;20005;-79
2022/12/25 09:07:48;;;;;;;3.22;1.10;;;;;;;8.78;56.77;94608.19;6165331;23;20012;-79
2022/12/25 09:10:14;;;;;;;3.03;0.95;;;;;;;8.76;57.17;94602.38;6164928;23;20322;-79
2022/12/25 09:12:39;;;;;;;3.95;1.20;;;;;;;8.84;57.42;94613.16;6164890;23;20063;-79
2022/12/25 09:15:05;;;;;;;5.35;1.00;;;;;;;8.89;56.75;94606.22;6165051;23;20061;-79
2022/12/25 09:17:32;;;;;;;2.05;0.98;;;;;;;8.98;56.17;94589.34;6164866;23;19997;-79
2022/12/25 09:19:57;;;;;;;1.88;0.80;;;;;;;9.07;56.44;94602.03;6165065;23;20203;-80
2022/12/25 09:22:23;;;;;;;4.45;1.75;;;;;;;9.13;56.46;94612.31;6164882;23;20005;-80
2022/12/25 09:24:48;;;;;;;6.80;2.40;;;;;;;9.16;56.05;94605.63;6164980;23;20299;-80
2022/12/25 09:27:14;;;;;;;3.03;1.30;;;;;;;9.23;55.40;94609.50;6164932;23;20105;-80
2022/12/25 09:29:39;;;;;;;2.28;0.75;;;;;;;9.23;54.39;94596.22;6164968;23;20239;-80
2022/12/25 09:32:06;;;;;;;1.95;0.80;;;;;;;9.27;54.91;94590.34;6164688;23;20281;-79
2022/12/25 09:34:31;;;;;;;2.08;0.85;;;;;;;9.35;55.63;94609.09;6164844;23;20009;-80
2022/12/25 09:36:57;;;;;;;4.57;0.80;;;;;;;9.37;55.59;94606.94;6164791;23;20105;-80
2022/12/25 09:39:22;;;;;;;2.75;1.00;;;;;;;9.32;54.10;94599.03;6164809;23;20001;-80
2022/12/25 09:42:18;;;;;;;2.85;0.98;;;;;;;9.32;53.74;94591.06;6138968;23;19997;-80
2022/12/25 09:44:49;;;;;;;2.15;0.95;;;;;;;9.28;53.81;94595.38;6164644;23;19998;-80
2022/12/25 09:47:19;;;;;;;1.65;0.70;;;;;;;9.33;53.77;94603.28;6164642;23;20040;-80
2022/12/25 09:49:53;;;;;;;3.90;1.20;;;;;;;9.39;54.60;94599.47;6164591;23;20002;-79
2022/12/25 09:52:41;;;;;;;2.58;1.10;;;;;;;9.50;54.29;94599.31;6164827;23;20020;-79
2022/12/25 09:55:19;;;;;;;4.75;1.10;;;;;;;9.59;54.05;94592.28;6138246;23;20043;-79
2022/12/25 09:57:48;;;;;;;5.30;1.40;;;;;;;9.68;53.61;94587.09;6164674;23;20016;-79
2022/12/25 10:00:16;;;;;;;4.50;1.08;;;;;;;9.71;52.97;94584.66;6164617;23;20017;-80
2022/12/25 10:02:47;;;;;;;2.25;1.00;;;;;;;9.76;53.64;94583.78;6164594;23;20224;-79
2022/12/25 10:05:20;;;;;;;3.03;1.05;;;;;;;9.79;52.54;94573.34;6164363;23;20009;-80
2022/12/25 10:08:02;;;;;;;5.85;0.80;;;;;;;9.83;52.09;94579.69;6164464;23;20036;-79
2022/12/25 10:10:49;;;;;;;5.38;1.83;;;;;;;9.91;52.76;94582.75;6164467;23;20008;-79
2022/12/25 10:13:44;;;;;;;3.10;1.00;;;;;;;9.88;51.88;94586.00;6164396;23;20004;-79
2022/12/25 10:16:31;;;;;;;2.90;1.25;;;;;;;9.87;52.52;94587.06;6164652;23;20005;-79
2022/12/25 10:19:26;;;;;;;3.28;1.00;;;;;;;9.89;52.16;94583.06;6164622;23;20052;-79
2022/12/25 10:21:57;;;;;;;2.38;1.00;;;;;;;9.87;51.62;94571.09;6164639;23;20272;-79
2022/12/25 10:24:41;;;;;;;3.72;0.85;;;;;;;9.86;52.17;94583.63;6164487;23;20002;-79
2022/12/25 10:27:17;;;;;;;2.80;1.10;;;;;;;9.88;52.04;94578.78;6164355;23;20001;-79
2022/12/25 10:29:45;;;;;;;2.53;0.82;;;;;;;9.85;52.13;94582.06;6164512;23;20100;-79
2022/12/25 10:32:10;;;;;;;2.70;1.20;;;;;;;9.86;52.37;94580.97;6164493;23;20005;-79
2022/12/25 10:34:39;;;;;;;3.58;1.38;;;;;;;9.88;53.06;94586.00;6138327;23;20157;-79
2022/12/25 10:37:05;;;;;;;5.85;1.38;;;;;;;9.90;53.51;94578.50;6164393;23;19997;-80
2022/12/25 10:39:30;;;;;;;2.42;1.20;;;;;;;9.94;53.76;94576.84;6164405;23;19997;-80
2022/12/25 10:42:19;;;;;;;3.03;1.30;;;;;;;9.95;53.45;94573.91;6164231;23;20003;-80
2022/12/25 10:44:54;;;;;;;3.88;1.27;;;;;;;9.99;53.09;94584.75;6144950;23;20006;-80
2022/12/25 10:47:26;;;;;;;3.75;1.02;;;;;;;9.98;52.66;94580.50;6164032;23;20068;-80
2022/12/25 10:49:52;;;;;;;2.80;1.05;;;;;;;10.04;52.14;94577.47;6163947;23;20001;-80
2022/12/25 10:52:24;;;;;;;2.50;0.95;;;;;;;10.13;52.51;94574.91;6164197;23;20020;-80
2022/12/25 10:54:51;;;;;;;5.25;1.20;;;;;;;10.17;51.50;94583.91;6164352;23;20100;-79
2022/12/25 10:57:23;;;;;;;1.65;0.82;;;;;;;10.18;52.04;94576.72;6164406;23;20017;-79
2022/12/25 10:59:56;;;;;;;2.15;1.02;;;;;;;10.14;51.74;94589.84;6164506;23;20009;-79
2022/12/25 11:02:35;;;;;;;3.97;1.42;;;;;;;10.26;52.50;94578.72;6164632;23;20002;-79
2022/12/25 11:05:08;;;;;;;2.88;1.25;;;;;;;10.40;52.54;94573.41;6164247;23;20006;-79
2022/12/25 11:07:45;;;;;;;4.68;1.30;;;;;;;10.40;51.91;94566.25;6166116;23;20027;-79
2022/12/25 11:10:40;;;;;;;2.30;0.90;;;;;;;10.50;52.00;94567.13;6166096;23;20005;-80
2022/12/25 11:13:28;;;;;;;1.70;0.70;;;;;;;10.48;51.29;94575.41;6166234;23;20168;-80
2022/12/25 11:16:28;;;;;;;5.32;1.17;;;;;;;10.47;50.71;94584.50;6166036;23;20051;-80
2022/12/25 11:18:54;;;;;;;1.90;1.05;;;;;;;10.53;51.22;94583.31;6019205;23;20311;-80
2022/12/25 11:21:26;;;;;;;3.25;1.17;;;;;;;10.50;51.13;94573.25;6110829;23;20084;-80
2022/12/25 11:24:00;;;;;;;2.33;1.10;;;;;;;10.49;51.75;94581.56;6140016;23;20028;-80
2022/12/25 11:26:28;;;;;;;3.45;0.90;;;;;;;10.50;51.45;94586.59;6166077;23;20056;-80
2022/12/25 11:28:54;;;;;;;8.30;1.35;;;;;;;10.44;51.67;94579.75;6139930;23;20001;-80
2022/12/25 11:31:36;;;;;;;5.75;1.88;;;;;;;10.44;51.97;94585.06;6166233;23;20001;-80
2022/12/25 11:34:17;;;;;;;3.90;1.60;;;;;;;10.40;52.18;94574.22;6165954;23;20002;-80
2022/12/25 11:36:49;;;;;;;6.00;1.45;;;;;;;10.39;51.48;94577.97;6165920;23;20321;-80
2022/12/25 11:39:28;;;;;;;6.10;1.80;;;;;;;10.35;51.88;94584.97;6166008;23;20060;-81
2022/12/25 11:42:01;;;;;;;2.70;1.40;;;;;;;10.42;52.28;94576.59;6165910;23;20236;-80
2022/12/25 11:44:42;;;;;;;3.78;1.23;;;;;;;10.42;52.59;94579.25;6165791;23;20153;-81
2022/12/25 11:47:36;;;;;;;5.85;1.30;;;;;;;10.51;53.22;94582.84;6165987;23;20041;-80
2022/12/25 11:50:05;;;;;;;3.33;1.48;;;;;;;10.60;52.37;94589.06;6165826;23;20060;-80
2022/12/25 11:52:36;;;;;;;3.40;1.40;;;;;;;10.53;52.24;94580.66;6165829;23;20045;-80
2022/12/25 11:55:10;;;;;;;3.42;0.90;;;;;;;10.53;52.03;94582.53;6139865;23;20036;-80
2022/12/25 11:57:38;;;;;;;5.55;1.33;;;;;;;10.58;52.74;94577.09;6165779;23;20295;-81
2022/12/25 12:00:09;;;;;;;4.50;1.20;;;;;;;10.57;52.01;94572.88;6165771;23;19997;-80
2022/12/25 12:02:52;;;;;;;7.63;1.40;;;;;;;10.50;52.46;94567.94;6139781;23;20001;-80
2022/12/25 12:05:43;;;;;;;3.88;0.98;;;;;;;10.43;52.29;94570.97;6165813;23;20002;-81
2022/12/25 12:08:09;;;;;;;11.13;1.52;;;;;;;10.52;52.67;94576.44;6165632;23;20028;-81
2022/12/25 12:10:55;;;;;;;2.33;1.05;;;;;;;10.59;50.86;94587.47;6165781;23;20001;-80
2022/12/25 12:14:01;;;;;;;3.38;1.27;;;;;;;10.56;51.26;94574.75;6165827;23;20005;-80
2022/12/25 12:16:27;;;;;;;4.38;1.10;;;;;;;10.56;51.84;94584.59;6093467;23;20021;-81
2022/12/25 12:18:53;;;;;;;3.58;1.70;;;;;;;10.54;51.88;94566.25;6165152;23;20001;-80
2022/12/25 12:21:27;;;;;;;7.38;1.42;;;;;;;10.53;51.20;94571.88;6165759;23;20232;-80
2022/12/25 12:24:04;;;;;;;4.85;1.23;;;;;;;10.60;51.62;94573.06;6165410;23;20048;-80
2022/12/25 12:26:37;;;;;;;2.92;1.20;;;;;;;10.49;51.08;94576.22;6165715;23;20103;-80
2022/12/25 12:29:05;;;;;;;6.00;1.75;;;;;;;10.50;51.15;94591.94;6165385;23;20257;-80
2022/12/25 12:31:44;;;;;;;2.78;0.90;;;;;;;10.51;51.21;94587.38;6165659;23;19997;-81
2022/12/25 12:34:24;;;;;;;2.30;0.95;;;;;;;10.49;50.98;94592.22;6165643;23;20027;-80
2022/12/25 12:36:55;;;;;;;4.35;1.13;;;;;;;10.52;50.92;94587.09;6165679;23;20005;-80
2022/12/25 12:39:30;;;;;;;2.97;1.10;;;;;;;10.59;51.11;94587.47;6165795;23;20002;-80
2022/12/25 12:41:56;;;;;;;3.08;1.00;;;;;;;10.54;51.26;94592.91;6165447;23;20191;-80
2022/12/25 12:44:29;;;;;;;6.18;1.95;;;;;;;10.50;51.54;94599.91;6165422;23;20000;-81
2022/12/25 12:46:56;;;;;;;2.20;0.85;;;;;;;10.39;51.75;94593.19;6165296;23;20374;-80
2022/12/25 12:49:32;;;;;;;3.28;1.20;;;;;;;10.32;52.30;94598.91;6165242;23;20291;-80
2022/12/25 12:52:23;;;;;;;3.28;1.63;;;;;;;10.27;51.78;94590.16;6165053;23;20029;-80
2022/12/25 12:55:11;;;;;;;3.47;1.30;;;;;;;10.26;51.98;94605.38;6165391;23;19997;-80
2022/12/25 12:57:38;;;;;;;2.35;1.13;;;;;;;10.13;52.37;94604.22;6165226;23;20060;-80
2022/12/25 13:00:15;;;;;;;3.60;1.15;;;;;;;10.07;52.59;94612.59;6165234;23;20001;-80
2022/12/25 13:03:02;;;;;;;2.60;1.10;;;;;;;10.07;52.94;94607.25;6165155;23;19999;-80
2022/12/25 13:05:44;;;;;;;3.42;1.30;;;;;;;10.05;52.79;94610.22;6165039;23;20009;-80
2022/12/25 13:08:35;;;;;;;4.53;1.65;;;;;;;10.02;52.98;94610.81;6135664;23;20010;-80
2022/12/25 13:11:24;;;;;;;5.03;1.20;;;;;;;9.95;53.27;94605.06;6135612;23;20196;-80
2022/12/25 13:13:52;;;;;;;5.32;1.52;;;;;;;9.97;53.14;94605.56;6135726;23;20024;-80
2022/12/25 13:16:25;;;;;;;3.35;1.30;;;;;;;9.91;53.32;94598.72;6109944;23;20002;-80
2022/12/25 13:18:52;;;;;;;4.53;1.50;;;;;;;9.86;53.18;94612.13;6135538;23;20048;-80
2022/12/25 13:21:26;;;;;;;7.20;1.98;;;;;;;9.83;53.33;94610.81;6135625;23;20045;-80
2022/12/25 13:24:00;;;;;;;4.82;2.42;;;;;;;9.77;53.05;94611.97;6135205;23;20001;-81
2022/12/25 13:26:26;;;;;;;7.70;2.50;;;;;;;9.70;53.58;94607.00;6135710;23;20006;-80
2022/12/25 13:28:54;;;;;;;6.03;1.80;;;;;;;9.66;53.26;94611.34;6135546;23;19998;-80
2022/12/25 13:31:26;;;;;;;6.50;1.95;;;;;;;9.67;53.21;94612.94;6135589;23;20006;-80
2022/12/25 13:34:01;;;;;;;5.40;2.10;;;;;;;9.66;52.87;94621.97;6135528;23;20200;-80
2022/12/25 13:36:29;;;;;;;7.07;1.88;;;;;;;9.61;52.82;94617.53;6135203;23;19998;-80